Time;durP1;ratioP1;P1;durP2;ratioP2;P2;SDS_P1;SDS_P2;PMS_P1;PMS_P2;Temp;Humidity;BMP_temperature;BMP_pressure;BME280_temperature;BME280_humidity;BME280_pressure;Samples;Min_cycle;Max_cycle;Signal;HPM_P1;HPM_P2
2023/05/19 00:02:44;;;;;;;2.17;0.75;;;;;;;12.67;48.47;101065.06;10390657;28;20056;-71
2023/05/19 00:07:46;;;;;;;5.03;0.82;;;;;;;12.65;48.42;101062.53;10386295;28;20084;-71
2023/05/19 00:12:48;;;;;;;4.60;1.13;;;;;;;12.61;48.56;101060.38;10382381;28;20049;-72
2023/05/19 00:17:54;;;;;;;5.00;0.75;;;;;;;12.57;48.70;101065.25;10389370;28;20053;-71
2023/05/19 00:22:55;;;;;;;4.05;1.10;;;;;;;12.49;49.35;101062.56;10389418;28;20595;-71
2023/05/19 00:27:58;;;;;;;3.05;0.60;;;;;;;12.43;48.94;101069.50;10388677;28;20054;-71
2023/05/19 00:32:59;;;;;;;5.28;0.73;;;;;;;12.41;49.06;101071.50;10386207;28;20148;-71
2023/05/19 00:38:01;;;;;;;5.40;0.82;;;;;;;12.40;48.98;101068.97;10388932;28;20072;-70
2023/05/19 00:43:04;;;;;;;2.65;0.50;;;;;;;12.33;49.58;101068.84;10387633;28;20072;-70
2023/05/19 00:48:05;;;;;;;5.28;0.80;;;;;;;12.23;49.67;101063.63;10383253;28;20050;-71
2023/05/19 00:53:07;;;;;;;1.83;0.77;;;;;;;12.14;50.15;101053.00;10386932;28;20057;-70
2023/05/19 00:58:11;;;;;;;2.30;0.50;;;;;;;12.02;50.65;101053.31;10384137;28;20041;-70
2023/05/19 01:03:13;;;;;;;3.40;0.70;;;;;;;11.96;50.55;101054.00;10378073;28;20045;-71
2023/05/19 01:08:15;;;;;;;3.53;0.80;;;;;;;11.87;50.93;101052.31;10391948;28;20069;-70
2023/05/19 01:13:17;;;;;;;2.83;0.60;;;;;;;11.75;51.41;101045.53;10371030;28;20042;-71
2023/05/19 01:18:28;;;;;;;6.72;0.75;;;;;;;11.65;51.94;101045.69;10377604;28;20437;-71
2023/05/19 01:23:55;;;;;;;4.95;0.85;;;;;;;11.59;51.72;101044.53;10391429;28;20046;-69
2023/05/19 01:29:28;;;;;;;3.90;0.60;;;;;;;11.46;52.26;101049.53;10394648;28;20050;-70
2023/05/19 01:34:30;;;;;;;3.70;0.93;;;;;;;11.41;52.04;101043.78;10392066;28;20131;-70
2023/05/19 01:39:32;;;;;;;3.17;0.57;;;;;;;11.40;52.22;101042.94;10380272;28;20074;-70
2023/05/19 01:44:34;;;;;;;5.50;1.40;;;;;;;11.39;52.31;101045.81;10395832;28;20137;-70
2023/05/19 01:49:35;;;;;;;1.83;0.55;;;;;;;11.37;52.35;101039.75;10392856;28;20042;-71
2023/05/19 01:54:37;;;;;;;3.40;1.20;;;;;;;11.36;52.75;101040.75;10374112;28;20416;-69
2023/05/19 01:59:50;;;;;;;3.92;0.60;;;;;;;11.35;52.38;101052.53;10375353;28;20046;-70
2023/05/19 02:05:03;;;;;;;4.07;1.40;;;;;;;11.31;52.78;101049.31;10394020;28;20416;-71
2023/05/19 02:10:09;;;;;;;3.38;0.70;;;;;;;11.28;52.76;101058.56;10393423;28;20128;-71
2023/05/19 02:15:24;;;;;;;2.75;0.70;;;;;;;11.29;52.68;101054.88;10389085;28;20564;-71
2023/05/19 02:20:26;;;;;;;6.22;0.90;;;;;;;11.27;52.91;101048.78;10391018;28;20181;-70
2023/05/19 02:25:27;;;;;;;6.22;0.82;;;;;;;11.26;52.56;101055.19;10376010;28;20053;-71
2023/05/19 02:30:30;;;;;;;5.40;0.75;;;;;;;11.20;52.90;101052.31;10393897;28;20121;-72
2023/05/19 02:35:32;;;;;;;2.47;0.60;;;;;;;11.17;53.09;101053.47;10386693;28;20608;-71
2023/05/19 02:40:34;;;;;;;8.50;1.10;;;;;;;11.13;53.50;101038.66;10396529;28;20073;-70
2023/05/19 02:45:35;;;;;;;6.32;0.70;;;;;;;11.07;53.87;101047.38;10392268;28;20051;-71
2023/05/19 02:50:37;;;;;;;4.88;0.95;;;;;;;11.00;53.67;101033.75;10385087;28;20056;-71
2023/05/19 02:55:38;;;;;;;9.27;1.27;;;;;;;10.96;54.24;101036.91;10385619;28;20057;-71
2023/05/19 03:00:40;;;;;;;5.03;0.88;;;;;;;10.96;53.76;101027.00;10386865;28;20053;-70
2023/05/19 03:05:42;;;;;;;4.70;0.95;;;;;;;10.94;54.01;101022.78;10389345;28;20509;-69
2023/05/19 03:10:45;;;;;;;3.22;0.75;;;;;;;10.91;54.19;101032.84;10395456;28;20135;-70
2023/05/19 03:15:47;;;;;;;5.35;1.15;;;;;;;10.88;53.92;101030.50;10376013;28;20449;-69
2023/05/19 03:20:49;;;;;;;2.53;0.70;;;;;;;10.82;54.26;101025.75;10387797;28;20057;-70
2023/05/19 03:25:53;;;;;;;5.47;0.80;;;;;;;10.82;54.41;101032.97;10379928;28;20061;-69
2023/05/19 03:30:54;;;;;;;5.22;0.85;;;;;;;10.80;54.38;101035.84;10380406;28;20080;-71
2023/05/19 03:35:56;;;;;;;2.53;0.63;;;;;;;10.79;54.33;101044.91;10385254;28;20077;-71
2023/05/19 03:40:58;;;;;;;4.90;0.70;;;;;;;10.79;54.47;101039.53;10383238;28;20100;-72
2023/05/19 03:45:59;;;;;;;1.60;0.70;;;;;;;10.73;54.69;101048.22;10391092;28;20042;-71
2023/05/19 03:51:01;;;;;;;5.25;1.00;;;;;;;10.61;55.05;101044.97;10386882;28;20062;-71
2023/05/19 03:56:02;;;;;;;4.38;1.05;;;;;;;10.62;55.42;101040.44;10384222;28;20060;-71
2023/05/19 04:01:04;;;;;;;6.85;0.70;;;;;;;10.64;54.96;101041.13;10380997;28;20053;-71
2023/05/19 04:06:06;;;;;;;4.22;1.00;;;;;;;10.71;55.22;101036.78;10389569;28;21133;-71
2023/05/19 04:11:08;;;;;;;5.25;0.90;;;;;;;10.72;55.63;101043.84;10390725;28;20397;-71
2023/05/19 04:16:10;;;;;;;3.55;0.60;;;;;;;10.70;55.47;101043.16;10385214;28;20044;-71
2023/05/19 04:21:11;;;;;;;3.13;1.10;;;;;;;10.73;55.38;101039.34;10385081;28;20053;-71
2023/05/19 04:26:16;;;;;;;8.95;1.67;;;;;;;10.76;55.53;101036.31;10383399;28;20060;-71
2023/05/19 04:31:20;;;;;;;4.88;0.93;;;;;;;10.86;55.39;101040.56;10378659;28;20041;-71
2023/05/19 04:36:22;;;;;;;6.15;0.80;;;;;;;10.88;55.46;101045.78;10379361;28;20136;-70
2023/05/19 04:41:24;;;;;;;3.88;0.90;;;;;;;10.95;55.73;101040.59;10385909;28;20048;-70
2023/05/19 04:46:28;;;;;;;7.00;1.40;;;;;;;11.05;55.38;101047.53;10393600;28;20074;-70
2023/05/19 04:51:30;;;;;;;3.03;0.90;;;;;;;11.15;55.12;101055.47;10381591;28;20137;-70
2023/05/19 04:56:32;;;;;;;4.40;1.08;;;;;;;11.21;55.02;101056.69;10393170;28;20052;-70
2023/05/19 05:01:33;;;;;;;8.95;0.80;;;;;;;11.29;55.22;101065.66;10389559;28;20042;-70
2023/05/19 05:06:36;;;;;;;2.20;0.70;;;;;;;11.38;55.30;101058.44;10380139;28;20129;-71
2023/05/19 05:11:38;;;;;;;2.75;0.73;;;;;;;11.40;55.27;101052.88;10397157;28;20037;-70
2023/05/19 05:16:41;;;;;;;6.00;1.27;;;;;;;11.39;55.55;101046.63;10391002;28;20053;-70
2023/05/19 05:21:43;;;;;;;1.77;0.68;;;;;;;11.47;56.01;101043.13;10390806;28;20049;-70
2023/05/19 05:26:44;;;;;;;7.55;1.05;;;;;;;11.58;55.92;101033.91;10388470;28;20045;-71
2023/05/19 05:31:46;;;;;;;3.03;0.85;;;;;;;11.70;56.00;101043.34;10395363;28;20519;-71
2023/05/19 05:36:47;;;;;;;5.90;0.80;;;;;;;11.77;56.28;101044.38;10392600;28;20049;-71
2023/05/19 05:41:49;;;;;;;9.90;1.27;;;;;;;11.95;56.09;101046.06;10387679;28;20053;-71
2023/05/19 05:46:51;;;;;;;6.78;0.98;;;;;;;12.07;55.83;101037.50;10386478;28;20205;-70
2023/05/19 05:51:53;;;;;;;7.97;1.77;;;;;;;12.19;55.52;101038.00;10394261;28;20546;-71
2023/05/19 05:57:07;;;;;;;5.47;1.00;;;;;;;12.39;55.37;101037.66;10418119;28;20072;-70
2023/05/19 06:02:08;;;;;;;4.47;1.10;;;;;;;12.55;55.81;101037.63;10410852;28;20136;-71
2023/05/19 06:07:09;;;;;;;6.88;0.82;;;;;;;12.76;55.88;101038.94;10406842;28;20049;-71
2023/05/19 06:12:11;;;;;;;3.88;1.67;;;;;;;13.01;55.76;101045.06;10399277;28;20063;-71
2023/05/19 06:17:12;;;;;;;5.20;0.90;;;;;;;13.16;55.21;101032.50;10393649;28;20049;-71
2023/05/19 06:22:14;;;;;;;3.85;0.80;;;;;;;13.36;54.89;101021.31;10391224;28;20377;-71
2023/05/19 06:27:15;;;;;;;2.83;0.75;;;;;;;13.53;54.45;101027.47;10391813;28;20064;-70
2023/05/19 06:32:17;;;;;;;6.40;0.70;;;;;;;13.70;54.85;101034.41;10390680;28;20132;-70
2023/05/19 06:37:22;;;;;;;5.50;0.77;;;;;;;13.82;53.81;101032.13;10391793;28;20056;-70
2023/05/19 06:42:25;;;;;;;1.33;1.05;;;;;;;14.13;52.58;101031.22;10389453;28;20473;-71
2023/05/19 06:47:27;;;;;;;4.25;0.95;;;;;;;14.34;51.74;101031.38;10394528;28;20133;-70
2023/05/19 06:52:28;;;;;;;2.55;0.73;;;;;;;14.45;51.26;101028.22;10390281;28;20345;-70
2023/05/19 06:57:30;;;;;;;3.97;0.50;;;;;;;14.64;50.88;101039.53;10386740;28;20052;-71
2023/05/19 07:02:31;;;;;;;4.53;0.50;;;;;;;14.78;50.62;101017.06;10370744;28;20436;-70
2023/05/19 07:07:34;;;;;;;4.30;0.60;;;;;;;14.90;50.03;101022.00;10371474;28;20482;-72
2023/05/19 07:12:35;;;;;;;3.92;0.60;;;;;;;14.99;50.17;101013.59;10387186;28;20044;-72
2023/05/19 07:17:37;;;;;;;4.43;0.70;;;;;;;15.21;49.64;101006.34;10383417;28;20045;-71
2023/05/19 07:22:38;;;;;;;3.88;0.60;;;;;;;15.36;49.56;101000.88;10390470;28;20036;-72
2023/05/19 07:27:40;;;;;;;3.67;0.70;;;;;;;15.52;49.49;100997.13;10383993;28;20558;-72
2023/05/19 07:32:42;;;;;;;3.95;0.70;;;;;;;15.64;48.91;100990.16;10372477;28;20048;-72
2023/05/19 07:37:43;;;;;;;3.35;0.60;;;;;;;15.82;48.50;100992.44;10367864;28;20050;-71
2023/05/19 07:42:45;;;;;;;5.90;0.75;;;;;;;15.98;48.54;100988.59;10387877;28;20054;-71
2023/05/19 07:47:46;;;;;;;4.68;0.50;;;;;;;16.28;47.99;100987.59;10383415;28;20113;-73
2023/05/19 07:52:48;;;;;;;4.13;0.52;;;;;;;16.56;47.33;100980.22;10371727;28;20404;-70
2023/05/19 07:57:49;;;;;;;5.10;0.70;;;;;;;16.68;46.88;100977.78;10385859;28;20049;-72
2023/05/19 08:02:51;;;;;;;2.17;0.60;;;;;;;16.79;46.80;100974.53;10371939;28;20068;-71
2023/05/19 08:07:53;;;;;;;2.08;0.47;;;;;;;17.08;46.33;100975.31;10376879;28;20058;-71
2023/05/19 08:12:55;;;;;;;9.13;0.65;;;;;;;17.33;45.90;100977.47;10386233;28;20433;-71
2023/05/19 08:17:56;;;;;;;4.20;0.47;;;;;;;17.52;45.01;100971.25;10384857;28;20042;-71
2023/05/19 08:22:58;;;;;;;4.55;1.40;;;;;;;17.73;44.58;100970.22;10366999;28;20645;-72
2023/05/19 08:28:00;;;;;;;4.10;0.98;;;;;;;17.78;43.93;100962.25;10381952;28;20048;-71
2023/05/19 08:33:02;;;;;;;1.75;0.40;;;;;;;17.84;43.33;100961.47;10385707;28;20523;-71
2023/05/19 08:38:03;;;;;;;5.85;0.88;;;;;;;17.99;42.77;100950.38;10366954;28;20070;-72
2023/05/19 08:43:04;;;;;;;2.20;0.60;;;;;;;18.25;42.00;100954.13;10367611;28;20041;-72
2023/05/19 08:48:06;;;;;;;2.50;0.40;;;;;;;18.43;41.83;100953.44;10380531;28;20077;-72
2023/05/19 08:53:13;;;;;;;5.78;0.43;;;;;;;18.59;41.53;100938.53;10382037;28;20536;-73
2023/05/19 08:58:32;;;;;;;1.55;0.50;;;;;;;18.76;41.17;100938.88;10369744;28;20357;-72
2023/05/19 09:03:37;;;;;;;3.13;0.60;;;;;;;19.00;40.73;100940.91;10386505;28;20787;-72
2023/05/19 09:08:40;;;;;;;1.85;0.60;;;;;;;19.11;40.23;100925.75;10379739;28;20049;-72
2023/05/19 09:13:42;;;;;;;2.60;0.50;;;;;;;19.35;39.57;100926.88;10382611;28;20611;-73
2023/05/19 09:18:57;;;;;;;3.80;0.40;;;;;;;19.47;38.88;100909.78;10361473;28;20068;-71
2023/05/19 09:24:06;;;;;;;3.70;1.05;;;;;;;19.73;38.51;100906.91;10385514;28;20065;-71
2023/05/19 09:29:15;;;;;;;1.80;0.40;;;;;;;20.00;38.01;100909.38;10390869;28;20455;-72
2023/05/19 09:34:17;;;;;;;1.88;0.50;;;;;;;20.13;37.45;100902.97;10393670;28;20100;-71
2023/05/19 09:39:20;;;;;;;5.47;0.50;;;;;;;20.24;37.49;100902.22;10390730;28;20058;-70
2023/05/19 09:44:27;;;;;;;4.20;0.40;;;;;;;20.33;37.12;100903.56;10380372;28;20050;-73
2023/05/19 09:49:31;;;;;;;;;;;;;;;20.62;37.28;100890.25;10404599;28;20077;-72
2023/05/19 09:54:33;;;;;;;4.22;1.23;;;;;;;20.98;36.67;100878.41;10398815;28;19943;-72
2023/05/19 09:59:37;;;;;;;1.67;0.32;;;;;;;21.26;36.05;100870.66;10401319;28;20060;-70
2023/05/19 10:04:41;;;;;;;3.42;0.82;;;;;;;21.50;34.54;100879.75;10396764;28;20045;-72
2023/05/19 10:09:43;;;;;;;1.48;0.30;;;;;;;21.74;33.98;100866.94;10397229;28;20072;-74
2023/05/19 10:14:47;;;;;;;2.40;0.40;;;;;;;21.93;33.10;100859.44;10395921;28;20077;-72
2023/05/19 10:19:53;;;;;;;0.88;0.40;;;;;;;22.12;32.23;100858.25;10386979;28;20049;-73
2023/05/19 10:24:55;;;;;;;3.63;0.60;;;;;;;22.31;31.56;100849.88;10392393;28;20057;-73
2023/05/19 10:30:00;;;;;;;3.65;0.52;;;;;;;22.76;30.78;100846.41;10394815;28;20046;-73
2023/05/19 10:35:15;;;;;;;2.03;0.40;;;;;;;22.66;30.94;100849.78;10390181;28;20572;-73
2023/05/19 10:40:54;;;;;;;4.55;0.40;;;;;;;22.87;30.34;100844.72;10389773;28;20381;-72
2023/05/19 10:45:57;;;;;;;4.55;0.40;;;;;;;23.11;30.14;100843.53;10384380;28;20046;-73
2023/05/19 10:50:59;;;;;;;5.18;0.50;;;;;;;23.35;29.87;100835.97;10388842;28;20081;-73
2023/05/19 10:56:02;;;;;;;1.02;0.40;;;;;;;23.63;29.13;100834.22;10384893;28;20071;-73
2023/05/19 11:01:32;;;;;;;2.58;0.35;;;;;;;23.53;29.36;100823.91;10396195;28;20096;-72
2023/05/19 11:06:37;;;;;;;1.70;0.40;;;;;;;23.51;29.64;100822.50;10407473;28;20068;-74
2023/05/19 11:11:50;;;;;;;3.95;0.30;;;;;;;23.36;29.85;100820.34;10406752;28;20249;-74
2023/05/19 11:16:55;;;;;;;1.67;0.40;;;;;;;23.29;29.83;100816.94;10413857;28;20045;-73
2023/05/19 11:22:11;;;;;;;1.35;0.40;;;;;;;23.38;30.25;100826.44;10403865;28;20104;-73
2023/05/19 11:27:19;;;;;;;3.58;0.65;;;;;;;23.44;30.00;100819.94;10389335;28;20080;-74
2023/05/19 11:32:25;;;;;;;3.28;0.50;;;;;;;23.46;30.21;100815.03;10385413;28;20053;-73
2023/05/19 11:37:31;;;;;;;1.27;0.40;;;;;;;23.47;29.90;100811.19;10386321;28;20056;-72
2023/05/19 11:42:34;;;;;;;1.60;0.40;;;;;;;23.76;29.81;100802.84;10398431;28;20480;-73
2023/05/19 11:47:37;;;;;;;0.95;0.30;;;;;;;23.94;29.68;100808.06;10397718;28;20099;-75
2023/05/19 11:52:59;;;;;;;3.45;0.35;;;;;;;24.29;29.60;100803.28;10400374;28;20049;-73
2023/05/19 11:58:03;;;;;;;2.70;1.15;;;;;;;24.29;29.60;100792.28;10394978;28;20085;-72
2023/05/19 12:03:07;;;;;;;3.42;0.63;;;;;;;24.55;29.29;100793.47;10400134;28;20052;-74
2023/05/19 12:08:12;;;;;;;2.40;0.50;;;;;;;24.80;28.78;100781.03;10370057;28;20503;-74
2023/05/19 12:13:14;;;;;;;2.67;0.65;;;;;;;25.50;28.38;100793.78;10396397;28;20564;-75
2023/05/19 12:18:16;;;;;;;1.17;0.50;;;;;;;25.88;27.58;100789.03;10367339;28;20072;-74
2023/05/19 12:23:17;;;;;;;2.88;1.50;;;;;;;26.11;27.53;100789.75;10386470;28;20129;-74
2023/05/19 12:28:19;;;;;;;0.47;0.30;;;;;;;26.09;27.67;100786.44;10406401;28;20037;-74
2023/05/19 12:33:21;;;;;;;1.35;0.52;;;;;;;26.09;27.72;100776.22;10390940;28;20049;-75
2023/05/19 12:38:23;;;;;;;5.63;0.55;;;;;;;26.01;27.75;100786.94;10387411;28;20068;-73
2023/05/19 12:43:25;;;;;;;2.05;0.75;;;;;;;25.80;27.81;100783.22;10381823;28;20172;-72
2023/05/19 12:48:28;;;;;;;4.57;0.40;;;;;;;25.51;28.00;100781.69;10391036;28;20077;-73
2023/05/19 12:53:32;;;;;;;2.45;0.50;;;;;;;25.83;27.88;100772.50;10391921;28;20162;-75
2023/05/19 12:58:34;;;;;;;3.72;0.80;;;;;;;26.18;27.66;100765.50;10375613;28;20049;-74
2023/05/19 13:03:40;;;;;;;2.40;0.38;;;;;;;26.47;27.05;100762.28;10377734;28;20124;-74
2023/05/19 13:08:42;;;;;;;2.28;0.70;;;;;;;26.59;27.22;100768.41;10399981;28;20053;-75
2023/05/19 13:13:44;;;;;;;1.88;0.40;;;;;;;26.57;27.08;100754.03;10393395;28;20113;-75
2023/05/19 13:18:46;;;;;;;1.27;0.30;;;;;;;26.60;26.24;100748.00;10405472;28;20144;-73
2023/05/19 13:23:48;;;;;;;3.92;0.40;;;;;;;27.13;25.95;100744.16;10407005;28;20057;-73
2023/05/19 13:28:50;;;;;;;2.13;0.50;;;;;;;27.58;25.45;100742.44;10393213;28;20053;-75
2023/05/19 13:33:53;;;;;;;4.63;0.47;;;;;;;27.18;25.48;100733.94;10399722;28;20064;-75
2023/05/19 13:38:55;;;;;;;3.88;0.60;;;;;;;27.19;25.46;100726.47;10378261;28;20527;-73
2023/05/19 13:43:58;;;;;;;2.58;0.93;;;;;;;27.56;24.81;100725.34;10402207;28;20050;-73
2023/05/19 13:49:01;;;;;;;2.03;0.50;;;;;;;27.88;24.48;100730.50;10409807;28;20049;-74
2023/05/19 13:54:02;;;;;;;3.40;0.43;;;;;;;28.51;24.06;100723.56;10401762;28;20080;-74
2023/05/19 13:59:03;;;;;;;4.35;0.55;;;;;;;28.30;24.42;100731.97;10385111;28;20057;-74
2023/05/19 14:04:05;;;;;;;3.40;0.60;;;;;;;28.59;24.40;100723.75;10383475;28;20050;-75
2023/05/19 14:09:08;;;;;;;2.03;0.43;;;;;;;28.56;24.77;100721.59;10384663;28;20077;-73
2023/05/19 14:14:09;;;;;;;2.00;0.50;;;;;;;28.85;24.58;100716.09;10385027;28;20050;-75
2023/05/19 14:19:12;;;;;;;1.88;0.45;;;;;;;28.49;24.84;100710.78;10374227;28;20045;-75
2023/05/19 14:24:13;;;;;;;1.40;0.40;;;;;;;28.64;24.32;100712.66;10355907;28;20046;-74
2023/05/19 14:29:15;;;;;;;2.63;0.40;;;;;;;28.00;24.44;100708.91;10369382;28;20432;-73
2023/05/19 14:34:16;;;;;;;3.95;0.43;;;;;;;27.63;25.09;100718.41;10384052;28;20038;-73
2023/05/19 14:39:18;;;;;;;4.40;0.40;;;;;;;28.42;24.44;100703.97;10367835;28;20053;-74
2023/05/19 14:44:19;;;;;;;1.30;0.40;;;;;;;29.10;23.76;100714.22;10386766;28;20160;-73
2023/05/19 14:49:21;;;;;;;2.42;0.52;;;;;;;28.88;24.36;100707.19;10388851;28;20042;-76
2023/05/19 14:54:22;;;;;;;2.63;0.50;;;;;;;29.00;23.98;100701.28;10380685;28;20673;-74
2023/05/19 14:59:24;;;;;;;4.78;0.80;;;;;;;28.76;24.55;100703.19;10383466;28;20544;-73
2023/05/19 15:04:25;;;;;;;4.15;0.60;;;;;;;28.22;25.51;100694.69;10383560;28;20052;-75
2023/05/19 15:09:27;;;;;;;1.88;0.40;;;;;;;27.48;25.64;100688.91;10370215;28;20104;-73
2023/05/19 15:14:29;;;;;;;2.97;0.45;;;;;;;27.14;26.42;100685.09;10368924;28;20092;-72
2023/05/19 15:19:31;;;;;;;0.95;0.75;;;;;;;26.30;26.94;100685.31;10371214;28;20076;-74
2023/05/19 15:24:33;;;;;;;9.20;0.50;;;;;;;25.80;27.52;100684.88;10357655;28;20050;-74
2023/05/19 15:29:35;;;;;;;2.15;0.50;;;;;;;25.79;27.46;100687.91;10395921;28;20049;-73
2023/05/19 15:34:36;;;;;;;1.98;1.02;;;;;;;25.98;27.68;100697.38;10391654;28;20076;-72
2023/05/19 15:39:38;;;;;;;1.25;0.40;;;;;;;25.43;28.24;100696.81;10384328;28;20133;-73
2023/05/19 15:44:39;;;;;;;2.47;1.25;;;;;;;25.36;28.70;100701.75;10391614;28;20048;-73
2023/05/19 15:49:41;;;;;;;3.47;0.70;;;;;;;25.64;27.74;100711.53;10375654;28;20137;-73
2023/05/19 15:54:43;;;;;;;1.90;0.60;;;;;;;25.30;27.44;100700.06;10373291;28;20133;-73
2023/05/19 15:59:44;;;;;;;1.08;0.50;;;;;;;24.92;27.81;100708.28;10392422;28;20068;-73
2023/05/19 16:04:46;;;;;;;1.83;0.60;;;;;;;24.88;27.47;100700.81;10391181;28;20037;-73
2023/05/19 16:09:48;;;;;;;3.33;0.73;;;;;;;25.23;27.19;100697.53;10394456;28;20121;-74
2023/05/19 16:14:50;;;;;;;0.80;0.45;;;;;;;25.73;27.29;100693.41;10393837;28;20136;-73
2023/05/19 16:19:54;;;;;;;2.75;0.40;;;;;;;26.21;26.73;100681.47;10387020;28;20049;-73
2023/05/19 16:24:55;;;;;;;2.90;0.70;;;;;;;26.60;26.14;100683.72;10385764;28;20144;-73
2023/05/19 16:29:57;;;;;;;1.60;0.60;;;;;;;26.83;25.73;100685.13;10382784;28;20514;-73
2023/05/19 16:34:58;;;;;;;3.92;0.47;;;;;;;27.00;25.91;100671.03;10390273;28;20041;-73
2023/05/19 16:40:00;;;;;;;3.78;0.75;;;;;;;27.26;25.73;100677.38;10403193;28;20064;-73
2023/05/19 16:45:02;;;;;;;1.00;0.50;;;;;;;27.31;25.48;100677.34;10401847;28;20139;-73
2023/05/19 16:50:04;;;;;;;3.92;0.40;;;;;;;27.30;25.26;100671.00;10401395;28;20037;-73
2023/05/19 16:55:06;;;;;;;1.20;0.57;;;;;;;27.49;24.71;100679.50;10398333;28;20046;-72
2023/05/19 17:00:08;;;;;;;0.80;0.40;;;;;;;27.69;24.58;100666.75;10377234;28;20054;-72
2023/05/19 17:05:10;;;;;;;3.13;0.77;;;;;;;28.09;24.96;100675.94;10381788;28;20053;-68
2023/05/19 17:10:12;;;;;;;3.05;0.45;;;;;;;28.23;24.60;100674.19;10377266;28;20045;-61
2023/05/19 17:15:14;;;;;;;4.45;0.50;;;;;;;28.12;24.33;100678.16;10393407;28;20191;-60
2023/05/19 17:20:15;;;;;;;1.88;0.65;;;;;;;28.00;24.03;100674.88;10377969;28;20041;-62
2023/05/19 17:25:17;;;;;;;1.88;0.47;;;;;;;27.73;23.98;100676.09;10388348;28;20382;-61
2023/05/19 17:30:18;;;;;;;2.95;0.40;;;;;;;27.57;24.29;100682.78;10379710;28;20081;-61
2023/05/19 17:35:20;;;;;;;1.45;0.45;;;;;;;26.95;23.99;100685.66;10385720;28;20042;-61
2023/05/19 17:40:22;;;;;;;3.83;0.60;;;;;;;26.91;24.75;100693.66;10388239;28;20041;-61
2023/05/19 17:45:23;;;;;;;1.10;0.30;;;;;;;27.17;24.35;100696.38;10383536;28;20064;-61
2023/05/19 17:50:25;;;;;;;4.80;0.40;;;;;;;27.06;24.51;100700.28;10385137;28;20060;-61
2023/05/19 17:55:29;;;;;;;3.28;0.40;;;;;;;27.04;24.90;100694.22;10384689;28;20073;-61
2023/05/19 18:00:31;;;;;;;2.25;0.40;;;;;;;26.71;25.36;100694.50;10386368;28;20050;-62
2023/05/19 18:05:34;;;;;;;3.50;0.47;;;;;;;26.03;26.18;100699.34;10382040;28;20049;-62
2023/05/19 18:10:37;;;;;;;0.57;0.30;;;;;;;25.45;26.01;100693.81;10387809;28;20542;-62
2023/05/19 18:15:39;;;;;;;1.98;0.40;;;;;;;24.66;26.02;100704.47;10382878;28;20053;-63
2023/05/19 18:20:43;;;;;;;1.42;0.30;;;;;;;24.08;26.86;100712.38;10384507;28;20054;-62
2023/05/19 18:25:50;;;;;;;3.65;0.30;;;;;;;23.66;27.23;100709.38;10384430;28;20072;-61
2023/05/19 18:31:03;;;;;;;3.22;0.40;;;;;;;23.03;27.95;100700.50;10387223;28;20097;-61
2023/05/19 18:36:05;;;;;;;1.38;0.40;;;;;;;22.57;28.39;100708.75;10390283;28;20069;-61
2023/05/19 18:41:08;;;;;;;1.75;0.30;;;;;;;22.05;29.20;100706.09;10367319;28;20053;-61
2023/05/19 18:46:10;;;;;;;1.10;0.57;;;;;;;21.65;29.97;100706.94;10389727;28;20069;-61
2023/05/19 18:51:14;;;;;;;0.65;0.47;;;;;;;21.23;30.72;100716.09;10384182;28;20135;-61
2023/05/19 18:56:26;;;;;;;0.98;0.40;;;;;;;20.89;31.04;100724.03;10384983;28;20050;-61
2023/05/19 19:01:28;;;;;;;1.58;0.47;;;;;;;20.58;31.64;100717.75;10381125;28;20064;-60
2023/05/19 19:06:30;;;;;;;1.77;0.45;;;;;;;20.29;32.33;100724.88;10385157;28;20065;-60
2023/05/19 19:11:31;;;;;;;2.70;0.50;;;;;;;20.01;33.08;100729.03;10383293;28;20058;-59
2023/05/19 19:16:33;;;;;;;6.55;0.88;;;;;;;19.83;33.57;100729.06;10379639;28;20053;-60
2023/05/19 19:21:34;;;;;;;12.55;1.35;;;;;;;19.66;33.81;100725.22;10380459;28;20978;-68
2023/05/19 19:26:36;;;;;;;3.10;0.60;;;;;;;19.58;34.09;100734.53;10362081;28;20140;-69
2023/05/19 19:31:38;;;;;;;1.23;0.50;;;;;;;19.44;34.37;100733.84;10371920;28;20053;-70
2023/05/19 19:36:39;;;;;;;2.05;0.63;;;;;;;19.27;34.91;100741.75;10372547;28;20041;-70
2023/05/19 19:41:41;;;;;;;2.60;0.63;;;;;;;19.14;35.01;100740.00;10376252;28;20068;-70
2023/05/19 19:46:42;;;;;;;1.02;0.50;;;;;;;19.15;35.22;100740.81;10375998;28;20050;-70
2023/05/19 19:51:44;;;;;;;2.38;0.75;;;;;;;19.09;35.26;100744.44;10376445;28;20140;-69
2023/05/19 19:56:46;;;;;;;0.88;0.47;;;;;;;19.01;35.49;100745.56;10382284;28;20054;-69
2023/05/19 20:01:47;;;;;;;3.20;0.60;;;;;;;18.93;35.75;100743.94;10374729;28;20132;-69
2023/05/19 20:06:49;;;;;;;1.27;0.40;;;;;;;18.90;35.55;100732.63;10380070;28;20049;-68
2023/05/19 20:11:50;;;;;;;2.00;0.50;;;;;;;18.82;35.70;100734.59;10380824;28;20076;-68
2023/05/19 20:16:52;;;;;;;2.72;0.50;;;;;;;18.81;35.86;100735.63;10378105;28;20416;-68
2023/05/19 20:21:53;;;;;;;1.23;0.88;;;;;;;18.80;35.83;100731.25;10364544;28;20055;-69
2023/05/19 20:26:55;;;;;;;4.10;0.45;;;;;;;18.77;36.49;100733.56;10380287;28;20045;-70
2023/05/19 20:31:56;;;;;;;1.23;0.45;;;;;;;18.74;36.21;100729.41;10377818;28;20141;-70
2023/05/19 20:36:58;;;;;;;2.53;0.40;;;;;;;18.73;36.26;100735.06;10380729;28;20702;-70
2023/05/19 20:42:00;;;;;;;2.00;0.40;;;;;;;18.59;36.48;100734.31;10379024;28;20038;-70
2023/05/19 20:47:03;;;;;;;0.90;0.50;;;;;;;18.41;37.04;100735.88;10375225;28;20053;-70
2023/05/19 20:52:04;;;;;;;1.02;0.40;;;;;;;18.25;37.54;100730.94;10380607;28;20071;-69
2023/05/19 20:57:08;;;;;;;3.30;0.40;;;;;;;18.14;37.91;100734.34;10380036;28;20531;-70
2023/05/19 21:02:10;;;;;;;4.78;0.93;;;;;;;17.97;37.98;100732.13;10363618;28;20049;-69
2023/05/19 21:07:12;;;;;;;0.98;0.50;;;;;;;17.87;38.35;100736.34;10364967;28;20049;-70
2023/05/19 21:12:14;;;;;;;1.42;0.40;;;;;;;17.71;39.07;100743.06;10380894;28;20082;-70
2023/05/19 21:17:17;;;;;;;1.95;0.50;;;;;;;17.67;38.78;100739.09;10369229;28;20335;-70
2023/05/19 21:22:19;;;;;;;2.33;0.70;;;;;;;17.54;39.52;100737.25;10370023;28;20049;-70
2023/05/19 21:27:21;;;;;;;2.92;0.70;;;;;;;17.40;39.78;100745.41;10369091;28;20084;-70
2023/05/19 21:32:22;;;;;;;4.60;0.57;;;;;;;17.37;40.05;100745.00;10377216;28;20497;-70
2023/05/19 21:37:24;;;;;;;2.08;0.60;;;;;;;17.32;39.88;100739.34;10384613;28;20060;-70
2023/05/19 21:42:25;;;;;;;5.38;0.60;;;;;;;17.22;40.08;100740.63;10363012;28;20042;-70
2023/05/19 21:47:27;;;;;;;2.05;0.63;;;;;;;17.16;40.59;100751.50;10377983;28;20046;-71
2023/05/19 21:52:30;;;;;;;3.58;1.83;;;;;;;17.11;40.63;100746.69;10372763;28;20517;-70
2023/05/19 21:57:31;;;;;;;3.95;0.90;;;;;;;17.11;40.75;100746.69;10381064;28;20060;-71
2023/05/19 22:02:33;;;;;;;0.90;0.47;;;;;;;17.01;41.23;100738.97;10374159;28;20093;-71
2023/05/19 22:07:35;;;;;;;1.55;0.43;;;;;;;17.07;41.17;100742.72;10390197;28;20042;-72
2023/05/19 22:12:37;;;;;;;1.42;0.50;;;;;;;16.99;41.32;100742.94;10377527;28;20096;-70
2023/05/19 22:17:38;;;;;;;3.20;0.57;;;;;;;16.90;42.00;100745.00;10387514;28;20050;-70
2023/05/19 22:22:40;;;;;;;1.63;0.77;;;;;;;16.92;41.99;100733.94;10379554;28;20056;-70
2023/05/19 22:27:41;;;;;;;3.45;0.77;;;;;;;16.94;42.01;100730.00;10379654;28;20681;-71
2023/05/19 22:32:43;;;;;;;1.85;0.88;;;;;;;16.92;42.24;100731.22;10381405;28;20058;-71
2023/05/19 22:37:44;;;;;;;1.52;0.90;;;;;;;16.94;42.30;100734.56;10365900;28;20081;-71
2023/05/19 22:42:46;;;;;;;1.00;0.50;;;;;;;16.90;42.56;100725.16;10366414;28;20049;-71
2023/05/19 22:47:48;;;;;;;2.28;0.70;;;;;;;16.87;42.84;100722.88;10383698;28;20061;-71
2023/05/19 22:52:50;;;;;;;4.18;0.65;;;;;;;16.81;42.92;100728.09;10363573;28;20050;-71
2023/05/19 22:57:51;;;;;;;2.55;0.60;;;;;;;16.83;43.13;100725.19;10380280;28;20132;-70
2023/05/19 23:02:53;;;;;;;1.58;0.70;;;;;;;16.82;43.39;100729.78;10380257;28;20511;-71
2023/05/19 23:07:55;;;;;;;1.63;0.63;;;;;;;16.81;43.63;100714.53;10383462;28;20084;-71
2023/05/19 23:12:56;;;;;;;2.30;0.70;;;;;;;16.88;43.71;100714.50;10389022;28;20053;-70